createdAt,value
2023-05-04T00:02:17.036Z,31.80
2023-05-04T00:04:44.749Z,29.00
2023-05-04T00:07:12.401Z,27.10
2023-05-04T00:09:40.084Z,26.50
2023-05-04T00:12:08.305Z,26.90
2023-05-04T00:14:38.649Z,28.70
2023-05-04T00:17:08.100Z,25.90
2023-05-04T00:19:35.939Z,26.40
2023-05-04T00:22:03.608Z,32.80
2023-05-04T00:24:31.251Z,31.80
2023-05-04T00:26:58.921Z,30.70
2023-05-04T00:29:26.565Z,31.20
2023-05-04T00:31:54.216Z,29.70
2023-05-04T00:34:21.918Z,27.90
2023-05-04T00:36:49.926Z,27.20
2023-05-04T00:39:17.537Z,29.60
2023-05-04T00:41:45.984Z,31.50
2023-05-04T00:44:14.353Z,31.70
2023-05-04T00:46:42.084Z,33.70
2023-05-04T00:49:09.724Z,27.70
2023-05-04T00:51:37.352Z,31.60
2023-05-04T00:54:04.934Z,39.30
2023-05-04T00:56:33.172Z,42.50
2023-05-04T00:59:00.876Z,41.90
2023-05-04T01:01:28.595Z,40.60
2023-05-04T01:03:56.719Z,37.00
2023-05-04T01:06:24.406Z,37.30
2023-05-04T01:08:52.032Z,32.40
2023-05-04T01:11:19.951Z,32.50
2023-05-04T01:13:48.356Z,30.50
2023-05-04T01:16:16.077Z,29.30
2023-05-04T01:18:43.765Z,33.20
2023-05-04T01:21:11.353Z,31.10
2023-05-04T01:23:39.001Z,26.40
2023-05-04T01:26:06.725Z,29.30
2023-05-04T01:28:34.515Z,27.50
2023-05-04T01:31:02.845Z,30.30
2023-05-04T01:33:30.579Z,29.10
2023-05-04T01:35:58.213Z,31.60
2023-05-04T01:38:25.903Z,23.80
2023-05-04T01:40:53.499Z,22.40
2023-05-04T01:43:21.142Z,24.50
2023-05-04T01:45:48.829Z,25.70
2023-05-04T01:48:17.122Z,26.10
2023-05-04T01:50:44.766Z,27.40
2023-05-04T01:53:12.395Z,29.50
2023-05-04T01:55:40.045Z,27.80
2023-05-04T01:58:07.656Z,30.70
2023-05-04T02:00:35.256Z,29.10
2023-05-04T02:03:03.178Z,31.50
2023-05-04T02:05:30.926Z,29.50
2023-05-04T02:07:58.539Z,31.40
2023-05-04T02:10:26.281Z,33.30
2023-05-04T02:12:54.019Z,29.80
2023-05-04T02:15:21.778Z,30.30
2023-05-04T02:17:49.425Z,28.70
2023-05-04T02:20:17.079Z,24.60
2023-05-04T02:22:44.695Z,32.60
2023-05-04T02:25:12.328Z,23.30
2023-05-04T02:27:39.965Z,26.30
2023-05-04T02:30:07.591Z,25.60
2023-05-04T02:32:35.364Z,24.60
2023-05-04T02:35:03.120Z,25.30
2023-05-04T02:37:30.777Z,23.50
2023-05-04T02:39:58.573Z,23.10
2023-05-04T02:42:26.220Z,23.40
2023-05-04T02:44:53.876Z,22.70
2023-05-04T02:47:21.499Z,21.10
2023-05-04T02:49:49.182Z,20.90
2023-05-04T02:52:16.814Z,21.20
2023-05-04T02:54:44.453Z,25.10
2023-05-04T02:57:12.080Z,22.00
2023-05-04T02:59:39.676Z,21.30
2023-05-04T03:02:07.307Z,23.60
2023-05-04T03:04:34.947Z,20.70
2023-05-04T03:07:02.567Z,22.60
2023-05-04T03:09:30.210Z,20.10
2023-05-04T03:11:57.837Z,18.80
2023-05-04T03:14:25.460Z,18.70
2023-05-04T03:16:53.244Z,19.20
2023-05-04T03:19:22.266Z,18.40
2023-05-04T03:21:49.900Z,14.30
2023-05-04T03:24:17.523Z,13.60
2023-05-04T03:26:45.204Z,15.00
2023-05-04T03:29:12.788Z,13.60
2023-05-04T03:31:40.570Z,14.80
2023-05-04T03:34:09.868Z,15.90
2023-05-04T03:36:37.565Z,13.10
2023-05-04T03:39:05.174Z,14.00
2023-05-04T03:41:32.784Z,11.80
2023-05-04T03:44:00.420Z,11.70
2023-05-04T03:46:28.125Z,13.90
2023-05-04T03:48:55.745Z,12.60
2023-05-04T03:51:23.360Z,15.40
2023-05-04T03:53:50.939Z,13.00
2023-05-04T03:56:18.577Z,15.60
2023-05-04T03:58:46.190Z,17.60
2023-05-04T04:01:13.823Z,12.70
2023-05-04T04:03:41.702Z,12.00
2023-05-04T04:06:10.177Z,11.30
2023-05-04T04:08:37.857Z,15.50
2023-05-04T04:11:05.610Z,13.80
2023-05-04T04:13:33.247Z,11.60
2023-05-04T04:16:01.153Z,13.60
2023-05-04T04:18:28.797Z,10.50
2023-05-04T04:20:56.420Z,12.60
2023-05-04T04:23:24.265Z,12.30
2023-05-04T04:25:54.056Z,11.00
2023-05-04T04:28:22.452Z,10.90
2023-05-04T04:30:50.108Z,15.20
2023-05-04T04:33:18.070Z,15.50
2023-05-04T04:35:45.711Z,17.20
2023-05-04T04:38:14.095Z,13.70
2023-05-04T04:40:42.288Z,12.20
2023-05-04T04:43:10.443Z,14.30
2023-05-04T04:45:38.316Z,15.30
2023-05-04T04:48:05.993Z,12.60
2023-05-04T04:50:33.662Z,13.90
2023-05-04T04:53:01.356Z,12.90
2023-05-04T04:55:29.012Z,12.00
2023-05-04T04:57:56.598Z,17.40
2023-05-04T05:00:24.290Z,14.40
2023-05-04T05:02:52.015Z,13.30
2023-05-04T05:05:19.906Z,12.30
2023-05-04T05:07:47.766Z,16.00
2023-05-04T05:10:15.454Z,16.80
2023-05-04T05:12:43.156Z,14.60
2023-05-04T05:15:10.874Z,14.20
2023-05-04T05:17:39.400Z,14.30
2023-05-04T05:20:10.798Z,14.40
2023-05-04T05:22:38.513Z,13.00
2023-05-04T05:25:06.645Z,18.80
2023-05-04T05:27:34.819Z,16.70
2023-05-04T05:30:03.439Z,13.90
2023-05-04T05:32:31.863Z,12.50
2023-05-04T05:34:59.496Z,16.50
2023-05-04T05:37:27.919Z,14.50
2023-05-04T05:39:55.620Z,14.80
2023-05-04T05:42:23.270Z,14.90
2023-05-04T05:44:51.304Z,15.50
2023-05-04T05:47:18.986Z,15.10
2023-05-04T05:49:46.669Z,13.50
2023-05-04T05:52:14.352Z,12.50
2023-05-04T05:54:42.505Z,16.10
2023-05-04T05:57:10.178Z,18.50
2023-05-04T05:59:37.794Z,13.40
2023-05-04T06:02:06.193Z,16.00
2023-05-04T06:04:34.527Z,17.40
2023-05-04T06:07:02.202Z,16.10
2023-05-04T06:09:29.835Z,18.50
2023-05-04T06:11:58.147Z,15.80
2023-05-04T06:14:25.782Z,17.20
2023-05-04T06:16:53.430Z,13.80
2023-05-04T06:19:21.073Z,13.50
2023-05-04T06:21:48.690Z,14.70
2023-05-04T06:24:16.304Z,18.90
2023-05-04T06:26:43.992Z,16.70
2023-05-04T06:29:11.634Z,17.30
2023-05-04T06:31:39.440Z,17.60
2023-05-04T06:34:07.071Z,21.90
2023-05-04T06:36:34.686Z,22.90
2023-05-04T06:39:02.349Z,28.30
2023-05-04T06:41:30.056Z,25.30
2023-05-04T06:43:58.851Z,25.80
2023-05-04T06:46:27.274Z,22.70
2023-05-04T06:48:54.883Z,25.20
2023-05-04T06:51:22.600Z,24.10
2023-05-04T06:53:50.208Z,24.10
2023-05-04T06:56:18.307Z,23.80
2023-05-04T06:58:46.054Z,19.60
2023-05-04T07:01:14.848Z,25.90
2023-05-04T07:03:44.602Z,23.80
2023-05-04T07:06:12.527Z,24.90
2023-05-04T07:08:40.132Z,22.60
2023-05-04T07:11:07.751Z,23.50
2023-05-04T07:13:35.368Z,23.20
2023-05-04T07:16:02.995Z,24.60
2023-05-04T07:18:31.460Z,26.00
2023-05-04T07:21:06.395Z,25.70
2023-05-04T07:23:46.695Z,25.60
2023-05-04T07:26:14.379Z,25.90
2023-05-04T07:28:43.979Z,23.00
2023-05-04T07:31:13.106Z,26.50
2023-05-04T07:33:40.741Z,23.80
2023-05-04T07:36:08.470Z,23.60
2023-05-04T07:38:36.092Z,26.10
2023-05-04T07:41:03.802Z,27.20
2023-05-04T07:43:31.465Z,25.40
2023-05-04T07:45:59.148Z,25.80
2023-05-04T07:48:26.912Z,24.50
2023-05-04T07:50:54.754Z,28.30
2023-05-04T07:53:22.573Z,27.20
2023-05-04T07:55:50.173Z,28.10
2023-05-04T07:58:17.799Z,28.20
2023-05-04T08:00:45.674Z,25.20
2023-05-04T08:03:13.275Z,27.70
2023-05-04T08:05:41.037Z,29.30
2023-05-04T08:08:08.665Z,26.60
2023-05-04T08:10:36.784Z,24.60
2023-05-04T08:13:04.445Z,28.70
2023-05-04T08:15:32.128Z,27.70
2023-05-04T08:18:00.038Z,31.20
2023-05-04T08:20:27.873Z,24.50
2023-05-04T08:22:55.953Z,22.60
2023-05-04T08:25:23.653Z,23.30
2023-05-04T08:27:51.286Z,22.20
2023-05-04T08:30:18.959Z,23.90
2023-05-04T08:32:46.640Z,21.40
2023-05-04T08:35:14.295Z,19.10
2023-05-04T08:37:41.926Z,24.20
2023-05-04T08:40:09.572Z,19.20
2023-05-04T08:42:38.098Z,19.40
2023-05-04T08:45:05.971Z,16.80
2023-05-04T08:47:34.002Z,13.40
2023-05-04T08:50:02.009Z,16.20
2023-05-04T08:52:29.660Z,13.60
2023-05-04T08:54:57.757Z,12.70
2023-05-04T08:57:25.445Z,12.20
2023-05-04T08:59:53.979Z,8.00
2023-05-04T09:02:22.639Z,9.30
2023-05-04T09:04:50.500Z,11.20
2023-05-04T09:07:18.181Z,9.00
2023-05-04T09:09:46.773Z,7.80
2023-05-04T09:12:14.379Z,9.00
2023-05-04T09:14:41.967Z,8.70
2023-05-04T09:17:09.553Z,8.10
2023-05-04T09:19:37.210Z,6.20
2023-05-04T09:22:04.865Z,7.80
2023-05-04T09:24:32.505Z,9.50
2023-05-04T09:27:00.152Z,9.90
2023-05-04T09:29:27.766Z,9.60
2023-05-04T09:31:55.708Z,9.70
2023-05-04T09:34:23.581Z,10.80
2023-05-04T09:36:51.238Z,9.00
2023-05-04T09:39:19.405Z,6.30
2023-05-04T09:41:47.049Z,6.30
2023-05-04T09:44:14.667Z,6.90
2023-05-04T09:46:42.394Z,6.20
2023-05-04T09:49:10.047Z,4.70
2023-05-04T09:51:37.773Z,5.80
2023-05-04T09:54:05.408Z,6.50
2023-05-04T09:56:33.878Z,4.90
2023-05-04T09:59:01.547Z,5.70
2023-05-04T10:01:29.552Z,7.80
2023-05-04T10:03:57.250Z,5.10
2023-05-04T10:06:25.219Z,5.70
2023-05-04T10:08:52.909Z,4.00
2023-05-04T10:11:21.497Z,5.90
2023-05-04T10:13:49.558Z,6.60
2023-05-04T10:16:17.879Z,4.10
2023-05-04T10:18:45.541Z,3.50
2023-05-04T10:21:15.833Z,5.30
2023-05-04T10:23:43.469Z,3.60
2023-05-04T10:26:11.293Z,3.30
2023-05-04T10:28:38.908Z,2.40
2023-05-04T10:31:07.586Z,2.60
2023-05-04T10:33:35.207Z,3.40
2023-05-04T10:36:03.262Z,3.10
2023-05-04T10:38:31.022Z,5.10
2023-05-04T10:40:58.647Z,3.10
2023-05-04T10:43:26.406Z,6.60
2023-05-04T10:45:54.135Z,3.80
2023-05-04T10:48:21.760Z,3.80
2023-05-04T10:50:49.479Z,3.70
2023-05-04T10:53:17.170Z,2.50
2023-05-04T10:55:44.982Z,3.80
2023-05-04T10:58:15.038Z,4.20
2023-05-04T11:00:42.745Z,3.90
2023-05-04T11:03:12.118Z,2.90
2023-05-04T11:05:39.968Z,3.70
2023-05-04T11:08:07.600Z,5.10
2023-05-04T11:10:35.277Z,5.30
2023-05-04T11:13:05.568Z,3.20
2023-05-04T11:15:34.123Z,3.10
2023-05-04T11:18:01.771Z,4.20
2023-05-04T11:20:29.434Z,3.20
2023-05-04T11:22:57.055Z,3.80
2023-05-04T11:25:24.652Z,4.50
2023-05-04T11:27:52.914Z,3.40
2023-05-04T11:30:21.700Z,5.10
2023-05-04T11:32:50.515Z,3.90
2023-05-04T11:35:18.950Z,2.80
2023-05-04T11:37:46.783Z,4.20
2023-05-04T11:40:14.659Z,4.00
2023-05-04T11:42:42.973Z,3.20
2023-05-04T11:45:10.703Z,3.80
2023-05-04T11:47:38.826Z,3.00
2023-05-04T11:50:06.615Z,2.70
2023-05-04T11:52:36.550Z,2.70
2023-05-04T11:55:04.435Z,3.70
2023-05-04T11:57:32.374Z,3.10
2023-05-04T12:00:00.012Z,2.50
2023-05-04T12:02:28.080Z,2.30
2023-05-04T12:04:56.148Z,2.50
2023-05-04T12:07:23.811Z,4.30
2023-05-04T12:09:51.554Z,4.20
2023-05-04T12:12:20.572Z,6.80
2023-05-04T12:14:48.283Z,2.50
2023-05-04T12:17:16.201Z,4.60
2023-05-04T12:19:43.825Z,2.60
2023-05-04T12:22:11.825Z,4.30
2023-05-04T12:24:39.984Z,2.60
2023-05-04T12:27:08.199Z,6.60
2023-05-04T12:29:36.070Z,4.10
2023-05-04T12:32:03.783Z,6.40
2023-05-04T12:34:31.658Z,4.50
2023-05-04T12:36:59.753Z,4.30
2023-05-04T12:39:29.540Z,3.30
2023-05-04T12:41:57.248Z,3.50
2023-05-04T12:44:24.998Z,3.60
2023-05-04T12:46:53.070Z,3.30
2023-05-04T12:49:21.507Z,2.70
2023-05-04T12:51:51.957Z,2.50
2023-05-04T12:54:19.652Z,2.60
2023-05-04T12:56:47.328Z,2.40
2023-05-04T12:59:15.565Z,2.20
2023-05-04T13:01:43.305Z,2.20
2023-05-04T13:04:10.993Z,3.10
2023-05-04T13:06:38.698Z,3.30
2023-05-04T13:09:06.718Z,2.60
2023-05-04T13:11:34.370Z,4.00
2023-05-04T13:14:01.994Z,4.30
2023-05-04T13:16:30.885Z,3.10
2023-05-04T13:18:58.923Z,2.40
2023-05-04T13:21:26.545Z,2.10
2023-05-04T13:23:54.306Z,3.70
2023-05-04T13:26:22.197Z,6.40
2023-05-04T13:28:49.828Z,2.70
2023-05-04T13:31:17.505Z,3.90
2023-05-04T13:33:45.599Z,2.10
2023-05-04T13:36:13.248Z,3.10
2023-05-04T13:38:40.896Z,2.80
2023-05-04T13:41:08.552Z,2.50
2023-05-04T13:43:36.205Z,5.50
2023-05-04T13:46:03.937Z,2.90
2023-05-04T13:48:34.039Z,3.80
2023-05-04T13:51:01.832Z,2.30
2023-05-04T13:53:29.445Z,2.70
2023-05-04T13:55:57.074Z,3.00
2023-05-04T13:58:24.695Z,2.60
2023-05-04T14:00:52.496Z,5.20
2023-05-04T14:03:20.192Z,2.90
2023-05-04T14:05:47.854Z,3.30
2023-05-04T14:08:15.530Z,3.00
2023-05-04T14:10:43.222Z,3.10
2023-05-04T14:13:10.902Z,2.40
2023-05-04T14:15:38.598Z,3.80
2023-05-04T14:18:06.388Z,3.00
2023-05-04T14:20:33.981Z,1.90
2023-05-04T14:23:01.646Z,2.80
2023-05-04T14:25:29.462Z,4.00
2023-05-04T14:27:57.098Z,2.60
2023-05-04T14:30:24.795Z,3.30
2023-05-04T14:32:52.466Z,2.90
2023-05-04T14:35:20.201Z,2.20
2023-05-04T14:37:49.749Z,2.70
2023-05-04T14:40:17.770Z,2.60
2023-05-04T14:42:45.409Z,2.40
2023-05-04T14:45:13.126Z,2.40
2023-05-04T14:47:42.495Z,2.20
2023-05-04T14:50:10.388Z,1.90
2023-05-04T14:52:38.402Z,3.20
2023-05-04T14:55:06.851Z,1.90
2023-05-04T14:57:34.518Z,2.20
2023-05-04T15:00:08.016Z,3.20
2023-05-04T15:02:36.509Z,2.50
2023-05-04T15:05:04.763Z,5.20
2023-05-04T15:07:32.390Z,4.40
2023-05-04T15:10:00.053Z,3.00
2023-05-04T15:12:28.048Z,2.90
2023-05-04T15:14:55.680Z,1.90
2023-05-04T15:17:23.315Z,2.60
2023-05-04T15:19:50.958Z,2.00
2023-05-04T15:22:18.565Z,2.80
2023-05-04T15:24:46.201Z,1.90
2023-05-04T15:27:13.814Z,1.70
2023-05-04T15:29:42.137Z,2.60
2023-05-04T15:32:09.746Z,2.40
2023-05-04T15:34:37.360Z,3.20
2023-05-04T15:37:04.994Z,3.00
2023-05-04T15:39:32.677Z,1.60
2023-05-04T15:42:00.474Z,2.10
2023-05-04T15:44:28.165Z,2.20
2023-05-04T15:46:56.488Z,2.80
2023-05-04T15:49:24.129Z,2.40
2023-05-04T15:51:53.581Z,3.10
2023-05-04T15:54:21.696Z,2.80
2023-05-04T15:56:50.041Z,4.60
2023-05-04T15:59:18.262Z,1.70
2023-05-04T16:01:46.003Z,4.20
2023-05-04T16:04:13.766Z,2.10
2023-05-04T16:06:41.724Z,4.50
2023-05-04T16:09:10.106Z,2.60
2023-05-04T16:11:37.720Z,3.70
2023-05-04T16:14:05.348Z,2.90
2023-05-04T16:16:32.986Z,5.00
2023-05-04T16:19:00.610Z,2.30
2023-05-04T16:21:28.207Z,3.30
2023-05-04T16:23:56.398Z,2.80
2023-05-04T16:26:24.165Z,2.70
2023-05-04T16:28:51.783Z,4.90
2023-05-04T16:31:20.100Z,3.50
2023-05-04T16:33:48.252Z,1.90
2023-05-04T16:36:16.231Z,4.10
2023-05-04T16:38:43.828Z,2.40
2023-05-04T16:41:11.547Z,5.70
2023-05-04T16:43:39.415Z,2.40
2023-05-04T16:46:07.120Z,2.90
2023-05-04T16:48:34.793Z,2.70
2023-05-04T16:51:02.394Z,2.30
2023-05-04T16:53:30.023Z,2.50
2023-05-04T16:55:57.723Z,5.40
2023-05-04T16:58:25.515Z,2.90
2023-05-04T17:00:53.133Z,2.80
2023-05-04T17:03:20.858Z,1.90
2023-05-04T17:05:48.533Z,3.50
2023-05-04T17:08:17.591Z,4.20
2023-05-04T17:10:45.370Z,3.10
2023-05-04T17:13:13.290Z,2.90
2023-05-04T17:15:41.264Z,4.40
2023-05-04T17:18:10.676Z,2.30
2023-05-04T17:20:38.289Z,2.70
2023-05-04T17:23:07.704Z,2.60
2023-05-04T17:25:37.743Z,2.50
2023-05-04T17:28:05.389Z,5.70
2023-05-04T17:30:35.864Z,8.20
2023-05-04T17:33:06.007Z,3.30
2023-05-04T17:35:33.946Z,2.50
2023-05-04T17:38:01.573Z,3.60
2023-05-04T17:40:29.662Z,2.90
2023-05-04T17:42:57.471Z,2.50
2023-05-04T17:45:25.709Z,2.10
2023-05-04T17:47:53.358Z,2.60
2023-05-04T17:50:21.327Z,2.90
2023-05-04T17:52:49.098Z,3.10
2023-05-04T17:55:16.727Z,2.80
2023-05-04T17:57:44.354Z,3.70
2023-05-04T18:00:12.184Z,7.20
2023-05-04T18:02:39.921Z,4.10
2023-05-04T18:05:07.560Z,4.30
2023-05-04T18:07:35.160Z,5.40
2023-05-04T18:10:03.066Z,5.90
2023-05-04T18:12:30.780Z,8.50
2023-05-04T18:14:58.405Z,17.20
2023-05-04T18:17:27.480Z,18.90
2023-05-04T18:19:55.217Z,26.10
2023-05-04T18:22:22.827Z,24.70
2023-05-04T18:24:50.501Z,22.80
2023-05-04T18:27:18.131Z,22.00
2023-05-04T18:29:45.740Z,28.70
2023-05-04T18:32:13.330Z,22.90
2023-05-04T18:34:41.697Z,22.00
2023-05-04T18:37:09.859Z,19.90
2023-05-04T18:39:38.153Z,19.50
2023-05-04T18:42:06.050Z,24.40
2023-05-04T18:44:34.018Z,19.80
2023-05-04T18:47:01.734Z,23.40
2023-05-04T18:49:29.362Z,19.00
2023-05-04T18:51:56.981Z,22.80
2023-05-04T18:54:24.613Z,23.60
2023-05-04T18:56:52.228Z,23.30
2023-05-04T18:59:19.859Z,25.90
2023-05-04T19:01:47.510Z,24.10
2023-05-04T19:04:15.179Z,29.00
2023-05-04T19:06:42.861Z,29.50
2023-05-04T19:09:12.820Z,39.70
2023-05-04T19:11:40.618Z,29.50
2023-05-04T19:14:08.269Z,33.10
2023-05-04T19:16:36.003Z,33.60
2023-05-04T19:19:03.650Z,32.40
2023-05-04T19:21:31.287Z,28.70
2023-05-04T19:23:58.962Z,26.50
2023-05-04T19:26:26.919Z,24.30
2023-05-04T19:28:54.575Z,24.30
2023-05-04T19:31:22.657Z,20.70
2023-05-04T19:33:50.276Z,19.00
2023-05-04T19:36:18.036Z,16.20
2023-05-04T19:38:46.105Z,16.10
2023-05-04T19:41:14.045Z,16.70
2023-05-04T19:43:42.795Z,19.90
2023-05-04T19:46:10.474Z,14.10
2023-05-04T19:48:38.449Z,15.30
2023-05-04T19:51:06.085Z,16.30
2023-05-04T19:53:33.777Z,14.70
2023-05-04T19:56:01.455Z,14.30
2023-05-04T19:58:30.998Z,11.50
2023-05-04T20:00:58.760Z,10.60
2023-05-04T20:03:26.622Z,12.30
2023-05-04T20:05:54.340Z,11.80
2023-05-04T20:08:22.010Z,11.40
2023-05-04T20:10:49.659Z,11.20
2023-05-04T20:13:17.453Z,13.10
2023-05-04T20:15:45.277Z,7.90
2023-05-04T20:18:13.430Z,7.30
2023-05-04T20:20:41.072Z,11.60
2023-05-04T20:23:08.756Z,10.50
2023-05-04T20:25:36.724Z,8.50
2023-05-04T20:28:04.410Z,6.80
2023-05-04T20:30:32.791Z,13.20
2023-05-04T20:33:01.265Z,7.80
2023-05-04T20:35:28.960Z,8.80
2023-05-04T20:37:56.626Z,10.60
2023-05-04T20:40:24.266Z,7.00
2023-05-04T20:42:51.896Z,7.50
2023-05-04T20:45:19.686Z,6.70
2023-05-04T20:47:47.869Z,7.60
2023-05-04T20:50:17.971Z,7.80
2023-05-04T20:52:45.943Z,8.40
2023-05-04T20:55:13.969Z,8.80
2023-05-04T20:57:41.904Z,7.60
2023-05-04T21:00:09.651Z,8.30
2023-05-04T21:02:37.454Z,8.50
2023-05-04T21:05:05.166Z,9.00
2023-05-04T21:07:32.785Z,9.40
2023-05-04T21:10:00.490Z,6.70
2023-05-04T21:12:28.353Z,7.60
2023-05-04T21:14:56.019Z,11.40
2023-05-04T21:17:25.574Z,11.80
2023-05-04T21:19:53.401Z,13.90
2023-05-04T21:22:21.428Z,11.90
2023-05-04T21:24:49.056Z,8.50
2023-05-04T21:27:16.674Z,9.60
2023-05-04T21:29:44.304Z,9.80
2023-05-04T21:32:11.992Z,8.60
2023-05-04T21:34:39.621Z,9.10
2023-05-04T21:37:07.310Z,7.80
2023-05-04T21:39:34.921Z,8.30
2023-05-04T21:42:03.034Z,7.90
2023-05-04T21:44:30.659Z,10.20
2023-05-04T21:46:58.320Z,8.60
2023-05-04T21:49:25.988Z,13.30
2023-05-04T21:51:53.650Z,10.30
2023-05-04T21:54:23.810Z,11.60
2023-05-04T21:56:51.527Z,11.30
2023-05-04T21:59:19.159Z,9.30
2023-05-04T22:01:47.297Z,7.40
2023-05-04T22:04:14.957Z,8.00
2023-05-04T22:06:42.602Z,8.30
2023-05-04T22:09:10.300Z,8.60
2023-05-04T22:11:37.959Z,11.60
2023-05-04T22:14:05.592Z,9.40
2023-05-04T22:16:33.254Z,6.90
2023-05-04T22:19:00.910Z,7.80
2023-05-04T22:21:28.520Z,8.80
2023-05-04T22:23:56.214Z,7.90
2023-05-04T22:26:23.841Z,9.30
2023-05-04T22:28:51.472Z,7.00
2023-05-04T22:31:19.225Z,8.80
2023-05-04T22:33:46.918Z,8.70
2023-05-04T22:36:14.560Z,7.40
2023-05-04T22:38:42.638Z,10.70
2023-05-04T22:41:10.349Z,6.40
2023-05-04T22:43:37.957Z,7.80
2023-05-04T22:46:05.640Z,8.30
2023-05-04T22:48:33.285Z,9.70
2023-05-04T22:51:01.377Z,8.10
2023-05-04T22:53:28.980Z,8.00
2023-05-04T22:55:56.618Z,8.40
2023-05-04T22:58:24.282Z,8.80
2023-05-04T23:00:52.058Z,10.60
2023-05-04T23:03:19.752Z,8.50
2023-05-04T23:05:47.846Z,6.90
2023-05-04T23:08:16.134Z,10.10
2023-05-04T23:10:43.777Z,11.50
2023-05-04T23:13:11.684Z,9.20
2023-05-04T23:15:39.884Z,11.10
2023-05-04T23:18:07.591Z,10.10
2023-05-04T23:20:35.282Z,7.70
2023-05-04T23:23:03.334Z,10.90
2023-05-04T23:25:30.984Z,9.80
2023-05-04T23:27:58.591Z,10.20
2023-05-04T23:30:26.255Z,7.70
2023-05-04T23:32:53.967Z,7.60
2023-05-04T23:35:21.588Z,9.30
2023-05-04T23:37:49.238Z,9.40
2023-05-04T23:40:16.868Z,7.70
2023-05-04T23:42:44.493Z,8.10
2023-05-04T23:45:12.232Z,7.90
2023-05-04T23:47:39.912Z,11.10
2023-05-04T23:50:07.717Z,8.30
2023-05-04T23:52:35.550Z,8.30
2023-05-04T23:55:03.869Z,7.10
2023-05-04T23:57:31.573Z,5.50
2023-05-04T23:59:59.199Z,9.80
